createdAt,value
2019-02-22T00:01:29.599Z,47.6
2019-02-22T00:11:27.280Z,45.6
2019-02-22T00:21:27.851Z,54.8
2019-02-22T00:31:26.377Z,61.7
2019-02-22T00:41:27.617Z,51.8
2019-02-22T00:51:28.901Z,55.8
2019-02-22T01:01:28.859Z,48.6
2019-02-22T01:11:28.685Z,48.5
2019-02-22T01:21:26.494Z,50.5
2019-02-22T01:31:27.061Z,51.5
2019-02-22T01:41:26.731Z,50.6
2019-02-22T01:51:26.865Z,46.7
2019-02-22T02:01:26.742Z,46.0
2019-02-22T02:11:27.731Z,47.1
2019-02-22T02:21:27.672Z,42.4
2019-02-22T02:31:30.190Z,44.8
2019-02-22T02:41:27.582Z,43.1
2019-02-22T02:51:27.974Z,34.7
2019-02-22T03:01:26.520Z,36.4
2019-02-22T03:11:27.615Z,38.8
2019-02-22T03:21:27.076Z,36.2
2019-02-22T03:31:28.015Z,32.9
2019-02-22T03:42:40.028Z,32.4
2019-02-22T03:51:29.500Z,34.3
2019-02-22T04:01:27.486Z,29.8
2019-02-22T04:11:27.928Z,14.7
2019-02-22T04:21:26.757Z,8.7
2019-02-22T04:31:26.862Z,3.6
2019-02-22T04:41:26.887Z,3.2
2019-02-22T04:51:26.805Z,3.8
2019-02-22T05:01:26.440Z,2.2
2019-02-22T05:11:27.611Z,1.6
2019-02-22T05:21:26.891Z,1.7
2019-02-22T05:31:28.696Z,1.7
2019-02-22T05:41:27.492Z,3.1
2019-02-22T05:51:28.562Z,2.3
2019-02-22T06:01:27.103Z,3.8
2019-02-22T06:11:26.627Z,2.9
2019-02-22T06:21:33.786Z,5.7
2019-02-22T06:31:26.816Z,3.0
2019-02-22T06:41:26.671Z,2.1
2019-02-22T06:51:28.330Z,4.1
2019-02-22T07:01:28.123Z,3.1
2019-02-22T07:11:26.855Z,2.9
2019-02-22T07:21:26.592Z,3.1
2019-02-22T07:31:26.982Z,3.1
2019-02-22T07:41:26.639Z,6.2
2019-02-22T07:51:26.835Z,3.7
2019-02-22T08:01:27.740Z,4.3
2019-02-22T08:11:26.611Z,5.0
2019-02-22T08:21:26.394Z,4.4
2019-02-22T08:31:32.726Z,5.2
2019-02-22T08:41:27.252Z,4.6
2019-02-22T08:51:26.754Z,4.4
2019-02-22T09:01:26.342Z,4.8
2019-02-22T09:11:28.602Z,7.4
2019-02-22T09:21:26.702Z,8.1
2019-02-22T09:31:27.564Z,5.0
2019-02-22T09:41:27.128Z,5.9
2019-02-22T09:51:27.244Z,3.5
2019-02-22T10:01:27.124Z,7.8
2019-02-22T10:11:27.231Z,2.5
2019-02-22T10:21:27.129Z,5.9
2019-02-22T10:31:27.118Z,2.4
2019-02-22T10:41:26.941Z,4.1
2019-02-22T10:51:28.812Z,2.7
2019-02-22T11:01:26.428Z,5.3
2019-02-22T11:11:28.163Z,4.1
2019-02-22T11:21:26.831Z,6.1
2019-02-22T11:31:26.670Z,5.7
2019-02-22T11:41:27.228Z,3.9
2019-02-22T11:51:28.319Z,5.7
2019-02-22T12:01:27.118Z,3.8
2019-02-22T12:11:30.557Z,3.5
2019-02-22T12:21:28.942Z,3.8
2019-02-22T12:31:28.607Z,3.7
2019-02-22T12:41:27.167Z,3.1
2019-02-22T12:51:27.087Z,8.1
2019-02-22T13:01:26.611Z,3.0
2019-02-22T13:11:28.148Z,3.1
2019-02-22T13:21:28.671Z,4.8
2019-02-22T13:31:30.897Z,1.8
2019-02-22T13:41:27.243Z,2.5
2019-02-22T13:51:30.287Z,2.3
2019-02-22T14:01:26.620Z,2.4
2019-02-22T14:11:29.962Z,2.7
2019-02-22T14:21:26.786Z,3.2
2019-02-22T14:31:33.264Z,2.2
2019-02-22T14:41:32.738Z,14.1
2019-02-22T14:52:38.765Z,3.0
2019-02-22T15:01:31.900Z,4.2
2019-02-22T15:11:27.803Z,4.0
2019-02-22T15:21:26.362Z,4.6
2019-02-22T15:31:36.842Z,3.4
2019-02-22T15:41:26.508Z,3.5
2019-02-22T15:51:26.852Z,4.4
2019-02-22T16:01:29.016Z,4.7
2019-02-22T16:11:28.556Z,4.8
2019-02-22T16:21:26.568Z,4.5
2019-02-22T16:31:27.837Z,7.5
2019-02-22T16:41:28.441Z,12.1
2019-02-22T16:51:27.315Z,8.5
2019-02-22T17:01:32.601Z,7.0
2019-02-22T17:11:27.263Z,5.8
2019-02-22T17:21:27.077Z,4.2
2019-02-22T17:31:27.326Z,5.3
2019-02-22T17:41:27.556Z,8.0
2019-02-22T17:51:27.721Z,14.8
2019-02-22T18:01:26.320Z,3.1
2019-02-22T18:11:28.404Z,5.4
2019-02-22T18:21:28.157Z,10.2
2019-02-22T18:31:26.660Z,11.4
2019-02-22T18:41:26.455Z,8.3
2019-02-22T18:51:28.321Z,8.8
2019-02-22T19:01:27.932Z,9.2
2019-02-22T19:11:26.570Z,5.8
2019-02-22T19:21:27.880Z,8.4
2019-02-22T19:31:27.607Z,11.3
2019-02-22T19:41:27.287Z,10.1
2019-02-22T19:51:26.842Z,13.8
2019-02-22T20:01:26.938Z,9.7
2019-02-22T20:11:26.771Z,6.7
2019-02-22T20:21:26.916Z,5.6
2019-02-22T20:31:26.803Z,13.5
2019-02-22T20:41:27.891Z,17.4
2019-02-22T20:51:26.792Z,12.4
2019-02-22T21:01:26.516Z,13.6
2019-02-22T21:11:27.786Z,10.7
2019-02-22T21:21:27.113Z,9.5
2019-02-22T21:31:27.214Z,9.2
2019-02-22T21:41:29.678Z,11.0
2019-02-22T21:51:26.983Z,9.5
2019-02-22T22:01:26.958Z,7.6
2019-02-22T22:11:28.691Z,9.4
2019-02-22T22:21:26.579Z,7.0
2019-02-22T22:31:29.290Z,6.3
2019-02-22T22:41:28.780Z,8.2
2019-02-22T22:51:27.436Z,6.2
2019-02-22T23:01:27.285Z,8.6
2019-02-22T23:11:27.262Z,9.2
2019-02-22T23:21:27.049Z,6.8
2019-02-22T23:31:28.513Z,9.7
2019-02-22T23:41:29.158Z,10.2
2019-02-22T23:51:26.524Z,10.5
